createdAt,value
2017-12-17T00:01:04.569Z,8.80
2017-12-17T00:03:32.855Z,8.82
2017-12-17T00:06:01.183Z,9.07
2017-12-17T00:08:28.672Z,8.68
2017-12-17T00:10:56.300Z,8.68
2017-12-17T00:13:23.827Z,8.13
2017-12-17T00:15:51.370Z,7.32
2017-12-17T00:18:19.666Z,7.00
2017-12-17T00:20:47.214Z,8.27
2017-12-17T00:23:14.734Z,8.98
2017-12-17T00:25:42.274Z,7.43
2017-12-17T00:28:09.776Z,10.10
2017-12-17T00:30:37.291Z,8.52
2017-12-17T00:33:04.879Z,8.20
2017-12-17T00:35:32.385Z,8.45
2017-12-17T00:37:59.911Z,8.48
2017-12-17T00:40:28.186Z,9.50
2017-12-17T00:42:56.666Z,6.85
2017-12-17T00:45:24.240Z,8.02
2017-12-17T00:47:51.761Z,6.87
2017-12-17T00:50:19.322Z,7.45
2017-12-17T00:52:46.830Z,6.40
2017-12-17T00:55:14.382Z,7.50
2017-12-17T00:57:42.679Z,7.40
2017-12-17T01:00:10.188Z,8.17
2017-12-17T01:02:37.713Z,7.87
2017-12-17T01:05:05.250Z,7.10
2017-12-17T01:07:32.836Z,7.50
2017-12-17T01:10:00.363Z,6.40
2017-12-17T01:12:27.905Z,7.20
2017-12-17T01:14:55.440Z,7.68
2017-12-17T01:17:22.974Z,6.80
2017-12-17T01:19:50.519Z,5.85
2017-12-17T01:22:18.053Z,7.28
2017-12-17T01:24:46.408Z,6.05
2017-12-17T01:27:13.938Z,7.20
2017-12-17T01:29:41.551Z,6.90
2017-12-17T01:32:09.063Z,7.37
2017-12-17T01:34:36.598Z,7.30
2017-12-17T01:37:04.135Z,7.90
2017-12-17T01:39:31.652Z,6.40
2017-12-17T01:41:59.169Z,7.72
2017-12-17T01:44:26.733Z,6.53
2017-12-17T01:46:54.229Z,8.43
2017-12-17T01:49:21.751Z,8.13
2017-12-17T01:51:49.304Z,8.10
2017-12-17T01:54:16.835Z,8.13
2017-12-17T01:56:45.248Z,7.37
2017-12-17T01:59:12.746Z,7.57
2017-12-17T02:01:40.315Z,7.05
2017-12-17T02:04:07.817Z,7.00
2017-12-17T02:06:35.351Z,7.07
2017-12-17T02:09:03.703Z,8.05
2017-12-17T02:11:31.205Z,8.07
2017-12-17T02:13:58.718Z,6.10
2017-12-17T02:16:26.233Z,7.00
2017-12-17T02:18:53.814Z,7.37
2017-12-17T02:21:21.465Z,7.07
2017-12-17T02:23:49.019Z,7.65
2017-12-17T02:26:16.541Z,6.82
2017-12-17T02:28:44.134Z,7.50
2017-12-17T02:31:11.654Z,6.87
2017-12-17T02:33:39.295Z,7.60
2017-12-17T02:36:06.812Z,7.65
2017-12-17T02:38:34.314Z,5.93
2017-12-17T02:41:01.940Z,6.10
2017-12-17T02:43:30.183Z,5.72
2017-12-17T02:45:57.751Z,6.50
2017-12-17T02:48:26.028Z,6.55
2017-12-17T02:50:53.604Z,6.62
2017-12-17T02:53:21.115Z,6.95
2017-12-17T02:55:48.640Z,6.00
2017-12-17T02:58:16.147Z,6.57
2017-12-17T03:00:43.680Z,6.30
2017-12-17T03:03:11.198Z,5.85
2017-12-17T03:05:38.754Z,6.60
2017-12-17T03:08:06.238Z,5.90
2017-12-17T03:10:33.770Z,6.47
2017-12-17T03:13:02.048Z,6.30
2017-12-17T03:15:30.312Z,6.22
2017-12-17T03:17:58.592Z,6.12
2017-12-17T03:20:26.898Z,5.82
2017-12-17T03:22:54.404Z,6.28
2017-12-17T03:25:21.922Z,7.12
2017-12-17T03:27:49.448Z,5.70
2017-12-17T03:30:17.732Z,6.93
2017-12-17T03:32:46.011Z,6.57
2017-12-17T03:35:14.382Z,7.68
2017-12-17T03:37:41.919Z,8.00
2017-12-17T03:40:09.430Z,8.40
2017-12-17T03:42:36.960Z,6.70
2017-12-17T03:45:04.479Z,9.55
2017-12-17T03:47:31.982Z,7.97
2017-12-17T03:50:00.354Z,7.40
2017-12-17T03:52:27.880Z,6.90
2017-12-17T03:54:55.392Z,6.05
2017-12-17T03:57:23.673Z,6.00
2017-12-17T03:59:51.183Z,5.80
2017-12-17T04:02:18.692Z,5.32
2017-12-17T04:04:46.284Z,5.15
2017-12-17T04:07:13.796Z,5.10
2017-12-17T04:09:41.305Z,5.60
2017-12-17T04:12:08.817Z,6.65
2017-12-17T04:14:37.173Z,5.28
2017-12-17T04:17:04.707Z,7.20
2017-12-17T04:19:32.221Z,6.90
2017-12-17T04:22:00.504Z,6.22
2017-12-17T04:24:28.001Z,6.40
2017-12-17T04:26:55.501Z,6.78
2017-12-17T04:29:23.766Z,6.13
2017-12-17T04:31:51.292Z,5.90
2017-12-17T04:34:18.882Z,4.30
2017-12-17T04:36:47.159Z,5.17
2017-12-17T04:39:14.672Z,4.78
2017-12-17T04:41:42.184Z,4.60
2017-12-17T04:44:09.701Z,4.30
2017-12-17T04:46:37.219Z,4.85
2017-12-17T04:49:05.497Z,4.37
2017-12-17T04:51:33.015Z,3.42
2017-12-17T04:54:00.508Z,4.82
2017-12-17T04:56:28.801Z,4.07
2017-12-17T04:58:56.325Z,3.67
2017-12-17T05:01:23.840Z,4.07
2017-12-17T05:03:51.363Z,3.53
2017-12-17T05:06:19.627Z,5.70
2017-12-17T05:08:47.176Z,5.90
2017-12-17T05:11:14.666Z,6.10
2017-12-17T05:13:42.953Z,5.12
2017-12-17T05:16:10.447Z,6.00
2017-12-17T05:18:37.958Z,5.72
2017-12-17T05:21:06.228Z,8.00
2017-12-17T05:23:34.511Z,6.87
2017-12-17T05:26:02.795Z,7.55
2017-12-17T05:28:31.059Z,7.20
2017-12-17T05:30:59.331Z,8.30
2017-12-17T05:33:27.590Z,7.57
2017-12-17T05:35:55.133Z,9.15
2017-12-17T05:38:22.626Z,9.00
2017-12-17T05:40:50.888Z,9.38
2017-12-17T05:43:18.398Z,8.10
2017-12-17T05:45:45.879Z,8.68
2017-12-17T05:48:13.393Z,8.45
2017-12-17T05:50:41.688Z,8.57
2017-12-17T05:53:09.200Z,8.93
2017-12-17T05:55:36.715Z,8.18
2017-12-17T05:58:04.225Z,7.35
2017-12-17T06:00:31.756Z,6.28
2017-12-17T06:02:59.281Z,5.55
2017-12-17T06:05:26.789Z,4.90
2017-12-17T06:07:54.340Z,5.17
2017-12-17T06:10:22.011Z,5.75
2017-12-17T06:12:49.767Z,6.22
2017-12-17T06:15:17.324Z,6.75
2017-12-17T06:17:44.887Z,5.87
2017-12-17T06:20:12.456Z,7.10
2017-12-17T06:22:39.972Z,6.70
2017-12-17T06:25:07.563Z,6.60
2017-12-17T06:27:35.085Z,7.10
2017-12-17T06:30:02.590Z,7.35
2017-12-17T06:32:30.099Z,8.68
2017-12-17T06:34:57.619Z,8.48
2017-12-17T06:37:25.122Z,8.25
2017-12-17T06:39:52.643Z,6.57
2017-12-17T06:42:20.150Z,7.15
2017-12-17T06:44:47.663Z,7.20
2017-12-17T06:47:15.167Z,7.20
2017-12-17T06:49:42.676Z,6.97
2017-12-17T06:52:10.212Z,6.78
2017-12-17T06:54:37.758Z,6.30
2017-12-17T06:57:05.259Z,6.10
2017-12-17T06:59:32.782Z,6.10
2017-12-17T07:02:00.279Z,6.13
2017-12-17T07:04:27.800Z,6.35
2017-12-17T07:06:55.319Z,6.18
2017-12-17T07:09:23.587Z,6.80
2017-12-17T07:11:51.861Z,6.50
2017-12-17T07:14:20.153Z,6.10
2017-12-17T07:16:48.433Z,6.20
2017-12-17T07:19:16.700Z,5.50
2017-12-17T07:21:44.211Z,5.78
2017-12-17T07:24:11.748Z,5.90
2017-12-17T07:26:39.250Z,8.90
2017-12-17T07:29:06.767Z,6.40
2017-12-17T07:31:34.281Z,5.95
2017-12-17T07:34:01.787Z,6.20
2017-12-17T07:36:29.298Z,6.03
2017-12-17T07:38:57.575Z,6.20
2017-12-17T07:41:25.087Z,5.82
2017-12-17T07:43:52.615Z,5.55
2017-12-17T07:46:20.154Z,6.57
2017-12-17T07:48:48.431Z,5.87
2017-12-17T07:51:15.963Z,5.87
2017-12-17T07:53:43.464Z,5.80
2017-12-17T07:56:11.760Z,6.28
2017-12-17T07:58:39.269Z,6.55
2017-12-17T08:01:06.815Z,6.97
2017-12-17T08:03:34.332Z,6.97
2017-12-17T08:06:01.841Z,6.23
2017-12-17T08:08:29.358Z,6.28
2017-12-17T08:10:56.850Z,5.30
2017-12-17T08:13:24.379Z,5.18
2017-12-17T08:15:51.883Z,5.65
2017-12-17T08:18:19.386Z,5.93
2017-12-17T08:20:46.908Z,5.90
2017-12-17T08:23:14.417Z,7.97
2017-12-17T08:25:41.923Z,7.43
2017-12-17T08:28:09.450Z,7.37
2017-12-17T08:30:36.969Z,9.07
2017-12-17T08:33:04.467Z,9.10
2017-12-17T08:35:32.116Z,10.43
2017-12-17T08:37:59.634Z,12.27
2017-12-17T08:40:27.937Z,12.37
2017-12-17T08:42:55.460Z,10.50
2017-12-17T08:45:23.016Z,11.90
2017-12-17T08:47:50.532Z,11.70
2017-12-17T08:50:18.075Z,9.35
2017-12-17T08:52:45.591Z,8.63
2017-12-17T08:55:13.126Z,8.18
2017-12-17T08:57:40.628Z,8.30
2017-12-17T09:00:08.926Z,9.23
2017-12-17T09:02:36.431Z,9.90
2017-12-17T09:05:03.992Z,9.07
2017-12-17T09:07:31.479Z,10.10
2017-12-17T09:09:58.987Z,8.50
2017-12-17T09:12:26.503Z,8.80
2017-12-17T09:14:54.016Z,8.57
2017-12-17T09:17:21.569Z,8.52
2017-12-17T09:19:49.092Z,7.90
2017-12-17T09:22:17.369Z,8.48
2017-12-17T09:24:45.645Z,8.82
2017-12-17T09:27:13.926Z,8.87
2017-12-17T09:29:42.235Z,9.63
2017-12-17T09:32:09.759Z,9.45
2017-12-17T09:34:38.112Z,9.25
2017-12-17T09:37:05.644Z,8.73
2017-12-17T09:39:33.155Z,8.13
2017-12-17T09:42:00.722Z,8.00
2017-12-17T09:44:28.999Z,8.00
2017-12-17T09:46:57.285Z,9.10
2017-12-17T09:49:25.586Z,14.13
2017-12-17T09:51:53.135Z,8.63
2017-12-17T09:54:20.671Z,9.48
2017-12-17T09:56:48.938Z,17.37
2017-12-17T09:59:17.273Z,9.25
2017-12-17T10:01:44.811Z,8.67
2017-12-17T10:04:12.374Z,8.75
2017-12-17T10:06:39.900Z,8.90
2017-12-17T10:09:07.457Z,7.15
2017-12-17T10:11:34.991Z,7.60
2017-12-17T10:14:02.549Z,7.62
2017-12-17T10:16:30.047Z,8.25
2017-12-17T10:18:58.325Z,7.60
2017-12-17T10:21:26.625Z,7.90
2017-12-17T10:23:54.133Z,7.78
2017-12-17T10:26:21.640Z,7.87
2017-12-17T10:28:49.162Z,7.32
2017-12-17T10:31:16.682Z,7.20
2017-12-17T10:33:44.215Z,6.85
2017-12-17T10:36:11.767Z,6.70
2017-12-17T10:38:39.292Z,7.45
2017-12-17T10:41:06.816Z,6.97
2017-12-17T10:43:34.389Z,6.70
2017-12-17T10:46:01.968Z,7.10
2017-12-17T10:48:30.165Z,7.33
2017-12-17T10:50:57.736Z,7.50
2017-12-17T10:53:25.270Z,6.90
2017-12-17T10:55:53.568Z,6.50
2017-12-17T10:58:21.880Z,6.80
2017-12-17T11:00:49.519Z,7.68
2017-12-17T11:03:17.098Z,8.65
2017-12-17T11:05:44.642Z,6.80
2017-12-17T11:08:12.157Z,7.28
2017-12-17T11:10:39.686Z,6.47
2017-12-17T11:13:07.270Z,6.90
2017-12-17T11:15:34.774Z,6.40
2017-12-17T11:18:03.076Z,6.82
2017-12-17T11:20:30.629Z,6.95
2017-12-17T11:22:58.233Z,5.93
2017-12-17T11:25:25.952Z,6.25
2017-12-17T11:27:53.491Z,5.75
2017-12-17T11:30:21.768Z,5.40
2017-12-17T11:32:50.083Z,5.90
2017-12-17T11:35:17.599Z,5.80
2017-12-17T11:37:45.115Z,5.68
2017-12-17T11:40:13.394Z,16.65
2017-12-17T11:42:40.907Z,11.15
2017-12-17T11:45:09.228Z,6.15
2017-12-17T11:47:36.725Z,5.30
2017-12-17T11:50:04.994Z,6.30
2017-12-17T11:52:32.530Z,5.60
2017-12-17T11:55:00.136Z,5.65
2017-12-17T11:57:27.739Z,5.40
2017-12-17T11:59:55.258Z,5.50
2017-12-17T12:02:22.790Z,4.68
2017-12-17T12:04:50.324Z,6.05
2017-12-17T12:07:17.847Z,6.18
2017-12-17T12:16:29.986Z,5.30
2017-12-17T12:18:57.514Z,5.00
2017-12-17T12:21:25.020Z,4.70
2017-12-17T12:23:52.561Z,4.30
2017-12-17T12:26:20.163Z,5.10
2017-12-17T12:28:47.703Z,4.40
2017-12-17T12:31:15.212Z,4.90
2017-12-17T12:33:42.739Z,4.85
2017-12-17T12:36:10.282Z,4.12
2017-12-17T12:38:37.858Z,5.60
2017-12-17T12:41:07.038Z,4.07
2017-12-17T12:43:34.615Z,4.70
2017-12-17T12:46:02.139Z,4.40
2017-12-17T12:48:29.764Z,4.80
2017-12-17T12:50:57.277Z,4.75
2017-12-17T12:53:24.809Z,4.23
2017-12-17T12:55:53.077Z,4.07
2017-12-17T12:58:20.622Z,4.70
2017-12-17T13:00:48.158Z,5.10
2017-12-17T13:03:15.690Z,4.40
2017-12-17T13:05:43.243Z,5.10
2017-12-17T13:08:10.823Z,4.70
2017-12-17T13:10:38.417Z,4.82
2017-12-17T13:13:05.929Z,4.60
2017-12-17T13:15:34.244Z,4.57
2017-12-17T13:18:02.539Z,5.97
2017-12-17T13:20:30.080Z,10.35
2017-12-17T13:22:57.723Z,6.18
2017-12-17T13:25:25.394Z,4.80
2017-12-17T13:27:53.148Z,3.80
2017-12-17T13:30:20.926Z,4.60
2017-12-17T13:32:50.183Z,3.85
2017-12-17T13:35:17.847Z,3.75
2017-12-17T13:37:45.647Z,4.20
2017-12-17T13:40:14.523Z,4.60
2017-12-17T13:42:55.902Z,3.75
2017-12-17T13:45:25.672Z,3.65
2017-12-17T13:47:53.575Z,4.53
2017-12-17T13:50:21.254Z,4.37
2017-12-17T13:52:58.899Z,3.35
2017-12-17T13:55:36.761Z,3.60
2017-12-17T13:58:05.832Z,3.53
2017-12-17T14:00:34.138Z,3.50
2017-12-17T14:03:01.659Z,3.20
2017-12-17T14:05:29.231Z,3.40
2017-12-17T14:07:57.502Z,2.72
2017-12-17T14:10:25.771Z,3.03
2017-12-17T14:12:54.061Z,2.80
2017-12-17T14:15:22.342Z,3.30
2017-12-17T14:17:50.648Z,2.83
2017-12-17T14:20:18.411Z,2.90
2017-12-17T14:22:46.266Z,3.28
2017-12-17T14:25:13.832Z,3.00
2017-12-17T14:27:41.390Z,3.45
2017-12-17T14:30:08.927Z,2.95
2017-12-17T14:32:36.454Z,3.17
2017-12-17T14:35:03.973Z,3.12
2017-12-17T14:37:31.573Z,3.12
2017-12-17T14:39:59.192Z,3.30
2017-12-17T14:42:26.733Z,3.00
2017-12-17T14:44:55.057Z,3.55
2017-12-17T14:47:22.606Z,3.90
2017-12-17T14:49:50.189Z,3.83
2017-12-17T14:52:17.797Z,3.55
2017-12-17T14:54:45.396Z,10.15
2017-12-17T14:57:12.929Z,9.32
2017-12-17T14:59:40.478Z,2.87
2017-12-17T15:02:08.035Z,3.60
2017-12-17T15:04:35.555Z,3.28
2017-12-17T15:07:03.053Z,3.72
2017-12-17T15:09:31.374Z,3.53
2017-12-17T15:11:58.901Z,3.13
2017-12-17T15:14:26.539Z,3.37
2017-12-17T15:16:54.102Z,3.70
2017-12-17T15:19:22.435Z,3.40
2017-12-17T15:21:49.968Z,3.47
2017-12-17T15:24:17.498Z,3.45
2017-12-17T15:26:45.803Z,3.10
2017-12-17T15:29:13.341Z,3.08
2017-12-17T15:31:40.869Z,3.40
2017-12-17T15:34:08.902Z,3.10
2017-12-17T15:36:36.733Z,3.42
2017-12-17T15:39:07.765Z,2.75
2017-12-17T15:41:37.711Z,2.95
2017-12-17T15:44:05.295Z,2.95
2017-12-17T15:46:32.860Z,3.10
2017-12-17T15:49:00.458Z,2.90
2017-12-17T15:51:27.990Z,15.00
2017-12-17T15:53:55.512Z,10.77
2017-12-17T15:56:23.005Z,3.50
2017-12-17T15:58:51.302Z,3.35
2017-12-17T16:01:18.816Z,3.40
2017-12-17T16:03:46.335Z,3.60
2017-12-17T16:06:13.867Z,3.72
2017-12-17T16:08:43.404Z,3.30
2017-12-17T16:11:11.024Z,3.92
2017-12-17T16:13:38.549Z,4.05
2017-12-17T16:16:08.035Z,4.00
2017-12-17T16:18:36.743Z,4.00
2017-12-17T16:21:05.033Z,4.27
2017-12-17T16:23:32.605Z,9.68
2017-12-17T16:26:00.181Z,23.38
2017-12-17T16:28:27.740Z,39.65
2017-12-17T16:30:55.356Z,15.10
2017-12-17T16:33:22.833Z,5.40
2017-12-17T16:35:50.399Z,4.80
2017-12-17T16:38:17.915Z,4.00
2017-12-17T16:40:45.464Z,4.65
2017-12-17T16:43:12.974Z,4.70
2017-12-17T16:45:40.648Z,4.22
2017-12-17T16:48:08.199Z,4.70
2017-12-17T16:50:36.126Z,4.00
2017-12-17T16:53:04.419Z,4.90
2017-12-17T16:55:32.691Z,5.07
2017-12-17T16:58:01.064Z,4.65
2017-12-17T17:00:28.607Z,4.43
2017-12-17T17:02:56.627Z,4.37
2017-12-17T17:05:24.167Z,4.10
2017-12-17T17:07:52.464Z,3.70
2017-12-17T17:10:20.042Z,2.90
2017-12-17T17:12:47.579Z,2.92
2017-12-17T17:15:15.128Z,2.70
2017-12-17T17:17:42.726Z,27.40
2017-12-17T17:20:10.236Z,16.23
2017-12-17T17:22:37.768Z,10.73
2017-12-17T17:25:05.277Z,3.78
2017-12-17T17:27:32.812Z,4.35
2017-12-17T17:30:01.099Z,3.70
2017-12-17T17:32:29.393Z,4.45
2017-12-17T17:34:56.937Z,4.82
2017-12-17T17:37:25.217Z,3.53
2017-12-17T17:39:52.729Z,3.50
2017-12-17T17:42:20.280Z,3.30
2017-12-17T17:44:47.857Z,3.83
2017-12-17T17:47:15.411Z,3.75
2017-12-17T17:49:42.945Z,3.90
2017-12-17T17:52:10.477Z,4.50
2017-12-17T17:54:38.001Z,4.07
2017-12-17T17:57:05.526Z,4.40
2017-12-17T17:59:33.068Z,3.70
2017-12-17T18:02:01.391Z,5.75
2017-12-17T18:04:28.934Z,6.30
2017-12-17T18:06:56.497Z,4.03
2017-12-17T18:09:24.041Z,4.05
2017-12-17T18:11:51.546Z,3.72
2017-12-17T18:14:19.096Z,4.30
2017-12-17T18:16:46.680Z,3.90
2017-12-17T18:19:14.216Z,3.10
2017-12-17T18:21:41.774Z,3.22
2017-12-17T18:24:09.309Z,4.10
2017-12-17T18:26:36.854Z,3.78
2017-12-17T18:29:04.379Z,3.25
2017-12-17T18:31:31.934Z,2.92
2017-12-17T18:34:00.216Z,3.50
2017-12-17T18:36:28.632Z,3.70
2017-12-17T18:38:56.156Z,3.30
2017-12-17T18:41:24.486Z,3.85
2017-12-17T18:43:52.009Z,3.80
2017-12-17T18:46:19.543Z,4.60
2017-12-17T18:48:47.836Z,4.57
2017-12-17T18:51:16.115Z,4.10
2017-12-17T18:53:43.699Z,3.12
2017-12-17T18:56:11.284Z,2.35
2017-12-17T18:58:38.798Z,3.58
2017-12-17T19:01:06.324Z,4.20
2017-12-17T19:03:33.903Z,3.87
2017-12-17T19:06:01.437Z,5.00
2017-12-17T19:08:28.959Z,4.60
2017-12-17T19:10:56.634Z,4.70
2017-12-17T19:13:24.554Z,4.72
2017-12-17T19:15:52.085Z,6.00
2017-12-17T19:18:19.597Z,5.00
2017-12-17T19:20:47.139Z,5.60
2017-12-17T19:23:14.683Z,4.90
2017-12-17T19:25:42.224Z,5.90
2017-12-17T19:28:09.740Z,5.03
2017-12-17T19:30:37.290Z,4.10
2017-12-17T19:33:04.851Z,3.90
2017-12-17T19:35:32.340Z,5.30
2017-12-17T19:37:59.878Z,4.43
2017-12-17T19:40:27.449Z,4.50
2017-12-17T19:42:54.943Z,4.93
2017-12-17T19:45:22.571Z,4.00
2017-12-17T19:47:50.124Z,4.75
2017-12-17T19:50:17.723Z,5.32
2017-12-17T19:52:45.249Z,4.53
2017-12-17T19:55:12.813Z,4.55
2017-12-17T19:57:40.398Z,3.80
2017-12-17T20:00:08.484Z,3.60
2017-12-17T20:02:36.357Z,5.00
2017-12-17T20:05:04.045Z,5.23
2017-12-17T20:07:31.694Z,5.30
2017-12-17T20:10:00.074Z,4.90
2017-12-17T20:12:28.512Z,5.60
2017-12-17T20:14:56.228Z,5.70
2017-12-17T20:17:24.728Z,6.35
2017-12-17T20:19:52.337Z,6.10
2017-12-17T20:22:19.916Z,6.03
2017-12-17T20:24:47.433Z,6.10
2017-12-17T20:27:15.024Z,6.03
2017-12-17T20:29:42.586Z,5.60
2017-12-17T20:32:10.169Z,5.75
2017-12-17T20:34:37.728Z,6.40
2017-12-17T20:37:06.050Z,7.37
2017-12-17T20:39:34.014Z,7.20
2017-12-17T20:42:01.669Z,6.37
2017-12-17T20:44:29.230Z,6.40
2017-12-17T20:46:56.762Z,5.25
2017-12-17T20:49:25.077Z,5.50
2017-12-17T20:51:52.600Z,5.22
2017-12-17T20:54:20.896Z,5.50
2017-12-17T20:56:48.454Z,4.60
2017-12-17T20:59:16.160Z,4.15
2017-12-17T21:01:43.800Z,3.53
2017-12-17T21:04:11.662Z,3.60
2017-12-17T21:06:39.615Z,3.42
2017-12-17T21:09:07.334Z,3.70
2017-12-17T21:11:34.867Z,4.07
2017-12-17T21:14:03.607Z,3.80
2017-12-17T21:16:31.924Z,3.40
2017-12-17T21:18:59.497Z,3.25
2017-12-17T21:21:27.054Z,3.70
2017-12-17T21:23:54.601Z,1.90
2017-12-17T21:26:22.103Z,3.17
2017-12-17T21:28:49.798Z,3.00
2017-12-17T21:31:18.087Z,3.20
2017-12-17T21:33:45.612Z,2.72
2017-12-17T21:36:13.127Z,3.00
2017-12-17T21:38:40.689Z,2.50
2017-12-17T21:41:08.299Z,1.50
2017-12-17T21:43:36.667Z,2.55
2017-12-17T21:46:04.166Z,2.92
2017-12-17T21:48:31.676Z,3.00
2017-12-17T21:51:02.310Z,2.22
2017-12-17T21:53:32.366Z,2.97
2017-12-17T21:56:05.611Z,3.20
2017-12-17T21:58:34.087Z,3.10
2017-12-17T22:01:04.196Z,1.80
2017-12-17T22:03:33.838Z,2.05
2017-12-17T22:06:04.126Z,2.80
2017-12-17T22:08:33.313Z,4.15
2017-12-17T22:11:03.572Z,5.32
2017-12-17T22:13:33.538Z,5.15
2017-12-17T22:16:04.514Z,5.40
2017-12-17T22:18:34.859Z,5.75
2017-12-17T22:21:04.973Z,7.10
2017-12-17T22:23:35.934Z,6.30
2017-12-17T22:26:04.727Z,5.72
2017-12-17T22:28:35.108Z,4.97
2017-12-17T22:31:04.802Z,5.00
2017-12-17T22:33:34.987Z,4.85
2017-12-17T22:36:05.397Z,5.18
2017-12-17T22:38:37.477Z,6.95
2017-12-17T22:41:07.491Z,5.85
2017-12-17T22:43:38.141Z,5.78
2017-12-17T22:46:08.343Z,4.87
2017-12-17T22:48:37.980Z,5.55
2017-12-17T22:51:06.729Z,6.30
2017-12-17T22:53:35.001Z,6.03
2017-12-17T22:56:02.610Z,4.80
2017-12-17T22:58:30.157Z,4.87
2017-12-17T23:00:58.455Z,5.65
2017-12-17T23:03:26.061Z,4.82
2017-12-17T23:05:55.954Z,3.67
2017-12-17T23:08:25.960Z,3.90
2017-12-17T23:10:55.328Z,4.15
2017-12-17T23:13:26.091Z,3.45
2017-12-17T23:15:56.207Z,2.25
2017-12-17T23:18:25.772Z,2.40
2017-12-17T23:20:55.193Z,2.20
2017-12-17T23:23:26.192Z,2.12
2017-12-17T23:25:56.218Z,2.60
2017-12-17T23:28:26.365Z,2.60
2017-12-17T23:30:57.244Z,3.10
2017-12-17T23:33:27.349Z,3.20
2017-12-17T23:35:59.006Z,2.80
2017-12-17T23:38:26.540Z,2.60
2017-12-17T23:40:55.753Z,2.35
2017-12-17T23:43:26.035Z,1.90
2017-12-17T23:45:55.985Z,1.80
2017-12-17T23:48:26.120Z,2.22
2017-12-17T23:50:56.417Z,3.07
2017-12-17T23:53:25.227Z,3.20
2017-12-17T23:55:56.306Z,2.80
2017-12-17T23:58:26.178Z,3.40
